sensor_id;sensor_type;location;lat;lon;timestamp;temperature;humidity
48768;DHT22;34933;40.968;14.538;2022-07-29T00:01:19;25.70;99.90
48768;DHT22;34933;40.968;14.538;2022-07-29T00:04:03;25.70;99.90
48768;DHT22;34933;40.968;14.538;2022-07-29T00:06:48;25.70;99.90
48768;DHT22;34933;40.968;14.538;2022-07-29T00:09:32;25.70;99.90
48768;DHT22;34933;40.968;14.538;2022-07-29T00:12:21;25.70;99.90
48768;DHT22;34933;40.968;14.538;2022-07-29T00:15:07;25.70;99.90
48768;DHT22;34933;40.968;14.538;2022-07-29T00:17:51;25.70;99.90
48768;DHT22;34933;40.968;14.538;2022-07-29T00:20:36;25.60;99.90
48768;DHT22;34933;40.968;14.538;2022-07-29T00:23:21;25.60;99.90
48768;DHT22;34933;40.968;14.538;2022-07-29T00:26:06;25.40;99.90
48768;DHT22;34933;40.968;14.538;2022-07-29T00:28:50;25.40;99.90
48768;DHT22;34933;40.968;14.538;2022-07-29T00:31:36;25.40;99.90
48768;DHT22;34933;40.968;14.538;2022-07-29T00:34:21;25.50;99.90
48768;DHT22;34933;40.968;14.538;2022-07-29T00:37:24;25.50;99.90
48768;DHT22;34933;40.968;14.538;2022-07-29T00:40:09;25.50;99.90
48768;DHT22;34933;40.968;14.538;2022-07-29T00:42:54;25.40;99.90
48768;DHT22;34933;40.968;14.538;2022-07-29T00:45:39;25.30;99.90
48768;DHT22;34933;40.968;14.538;2022-07-29T00:48:23;25.30;99.90
48768;DHT22;34933;40.968;14.538;2022-07-29T00:51:08;25.30;99.90
48768;DHT22;34933;40.968;14.538;2022-07-29T00:53:54;25.30;99.90
48768;DHT22;34933;40.968;14.538;2022-07-29T00:56:40;25.20;99.90
48768;DHT22;34933;40.968;14.538;2022-07-29T00:59:26;25.20;99.90
48768;DHT22;34933;40.968;14.538;2022-07-29T01:02:11;25.10;99.90
48768;DHT22;34933;40.968;14.538;2022-07-29T01:04:56;25.10;99.90
48768;DHT22;34933;40.968;14.538;2022-07-29T01:07:42;25.10;99.90
48768;DHT22;34933;40.968;14.538;2022-07-29T01:10:27;25.10;99.90
48768;DHT22;34933;40.968;14.538;2022-07-29T01:13:14;25.10;99.90
48768;DHT22;34933;40.968;14.538;2022-07-29T01:16:04;25.10;99.90
48768;DHT22;34933;40.968;14.538;2022-07-29T01:18:56;25.00;99.90
48768;DHT22;34933;40.968;14.538;2022-07-29T01:21:53;25.00;99.90
48768;DHT22;34933;40.968;14.538;2022-07-29T01:30:38;24.90;99.90
48768;DHT22;34933;40.968;14.538;2022-07-29T01:33:25;24.90;99.90
48768;DHT22;34933;40.968;14.538;2022-07-29T01:36:36;24.80;99.90
48768;DHT22;34933;40.968;14.538;2022-07-29T01:39:30;24.70;99.90
48768;DHT22;34933;40.968;14.538;2022-07-29T01:48:42;24.70;99.90
48768;DHT22;34933;40.968;14.538;2022-07-29T01:51:36;24.70;99.90
48768;DHT22;34933;40.968;14.538;2022-07-29T01:54:39;24.70;99.90
48768;DHT22;34933;40.968;14.538;2022-07-29T01:57:29;24.60;99.90
48768;DHT22;34933;40.968;14.538;2022-07-29T02:00:16;24.60;99.90
48768;DHT22;34933;40.968;14.538;2022-07-29T02:03:05;24.60;99.90
48768;DHT22;34933;40.968;14.538;2022-07-29T02:05:51;24.60;99.90
48768;DHT22;34933;40.968;14.538;2022-07-29T02:08:38;24.60;99.90
48768;DHT22;34933;40.968;14.538;2022-07-29T02:11:24;24.60;99.90
48768;DHT22;34933;40.968;14.538;2022-07-29T02:14:10;24.50;99.90
48768;DHT22;34933;40.968;14.538;2022-07-29T02:16:56;24.50;99.90
48768;DHT22;34933;40.968;14.538;2022-07-29T02:19:43;24.40;99.90
48768;DHT22;34933;40.968;14.538;2022-07-29T02:22:31;24.40;99.90
48768;DHT22;34933;40.968;14.538;2022-07-29T02:25:18;24.30;99.90
48768;DHT22;34933;40.968;14.538;2022-07-29T02:28:03;24.30;99.90
48768;DHT22;34933;40.968;14.538;2022-07-29T02:30:48;24.20;99.90
48768;DHT22;34933;40.968;14.538;2022-07-29T02:33:34;24.10;99.90
48768;DHT22;34933;40.968;14.538;2022-07-29T02:36:21;24.10;99.90
48768;DHT22;34933;40.968;14.538;2022-07-29T02:39:08;24.00;99.90
48768;DHT22;34933;40.968;14.538;2022-07-29T02:41:58;24.10;99.90
48768;DHT22;34933;40.968;14.538;2022-07-29T02:44:45;24.10;99.90
48768;DHT22;34933;40.968;14.538;2022-07-29T02:47:42;24.20;99.90
48768;DHT22;34933;40.968;14.538;2022-07-29T02:50:34;24.10;99.90
48768;DHT22;34933;40.968;14.538;2022-07-29T02:53:20;24.10;99.90
48768;DHT22;34933;40.968;14.538;2022-07-29T02:56:10;24.10;99.90
48768;DHT22;34933;40.968;14.538;2022-07-29T02:58:59;24.00;99.90
48768;DHT22;34933;40.968;14.538;2022-07-29T03:01:45;23.90;99.90
48768;DHT22;34933;40.968;14.538;2022-07-29T03:04:31;23.90;99.90
48768;DHT22;34933;40.968;14.538;2022-07-29T03:07:18;23.80;99.90
48768;DHT22;34933;40.968;14.538;2022-07-29T03:10:06;23.90;99.90
48768;DHT22;34933;40.968;14.538;2022-07-29T03:12:53;23.90;99.90
48768;DHT22;34933;40.968;14.538;2022-07-29T03:15:38;23.80;99.90
48768;DHT22;34933;40.968;14.538;2022-07-29T03:18:23;23.80;99.90
48768;DHT22;34933;40.968;14.538;2022-07-29T03:21:08;23.70;99.90
48768;DHT22;34933;40.968;14.538;2022-07-29T03:23:53;23.70;99.90
48768;DHT22;34933;40.968;14.538;2022-07-29T03:26:37;23.70;99.90
48768;DHT22;34933;40.968;14.538;2022-07-29T03:29:22;23.80;99.90
48768;DHT22;34933;40.968;14.538;2022-07-29T03:32:06;23.80;99.90
48768;DHT22;34933;40.968;14.538;2022-07-29T03:34:51;23.80;99.90
48768;DHT22;34933;40.968;14.538;2022-07-29T03:37:36;23.80;99.90
48768;DHT22;34933;40.968;14.538;2022-07-29T03:40:25;23.80;99.90
48768;DHT22;34933;40.968;14.538;2022-07-29T03:43:13;23.80;99.90
48768;DHT22;34933;40.968;14.538;2022-07-29T03:46:00;23.80;99.90
48768;DHT22;34933;40.968;14.538;2022-07-29T03:48:48;23.80;99.90
48768;DHT22;34933;40.968;14.538;2022-07-29T03:51:35;23.80;99.90
48768;DHT22;34933;40.968;14.538;2022-07-29T03:54:19;23.80;99.90
48768;DHT22;34933;40.968;14.538;2022-07-29T03:57:06;23.90;99.90
48768;DHT22;34933;40.968;14.538;2022-07-29T03:59:52;23.90;99.90
48768;DHT22;34933;40.968;14.538;2022-07-29T04:02:38;24.00;99.90
48768;DHT22;34933;40.968;14.538;2022-07-29T04:05:22;23.90;99.90
48768;DHT22;34933;40.968;14.538;2022-07-29T04:08:07;23.90;99.90
48768;DHT22;34933;40.968;14.538;2022-07-29T04:10:51;23.90;99.90
48768;DHT22;34933;40.968;14.538;2022-07-29T04:13:36;23.90;99.90
48768;DHT22;34933;40.968;14.538;2022-07-29T04:16:21;23.90;99.90
48768;DHT22;34933;40.968;14.538;2022-07-29T04:19:05;23.90;99.90
48768;DHT22;34933;40.968;14.538;2022-07-29T04:21:50;23.90;99.90
48768;DHT22;34933;40.968;14.538;2022-07-29T04:24:35;23.90;99.90
48768;DHT22;34933;40.968;14.538;2022-07-29T04:27:20;23.90;99.90
48768;DHT22;34933;40.968;14.538;2022-07-29T04:30:05;23.90;99.90
48768;DHT22;34933;40.968;14.538;2022-07-29T04:32:49;23.90;99.90
48768;DHT22;34933;40.968;14.538;2022-07-29T04:35:38;23.90;99.90
48768;DHT22;34933;40.968;14.538;2022-07-29T04:38:22;23.90;99.90
48768;DHT22;34933;40.968;14.538;2022-07-29T04:41:06;23.90;99.90
48768;DHT22;34933;40.968;14.538;2022-07-29T04:43:52;23.90;99.90
48768;DHT22;34933;40.968;14.538;2022-07-29T04:46:37;24.00;99.90
48768;DHT22;34933;40.968;14.538;2022-07-29T04:49:21;24.10;99.90
48768;DHT22;34933;40.968;14.538;2022-07-29T04:52:06;24.20;99.90
48768;DHT22;34933;40.968;14.538;2022-07-29T04:54:51;24.20;99.90
48768;DHT22;34933;40.968;14.538;2022-07-29T04:57:35;24.30;99.90
48768;DHT22;34933;40.968;14.538;2022-07-29T05:00:20;24.30;99.90
48768;DHT22;34933;40.968;14.538;2022-07-29T05:03:04;24.40;99.90
48768;DHT22;34933;40.968;14.538;2022-07-29T05:05:49;24.50;99.90
48768;DHT22;34933;40.968;14.538;2022-07-29T05:08:33;24.60;99.90
48768;DHT22;34933;40.968;14.538;2022-07-29T05:11:18;24.60;99.90
48768;DHT22;34933;40.968;14.538;2022-07-29T05:14:03;24.70;99.90
48768;DHT22;34933;40.968;14.538;2022-07-29T05:16:47;24.80;99.90
48768;DHT22;34933;40.968;14.538;2022-07-29T05:19:35;24.90;99.90
48768;DHT22;34933;40.968;14.538;2022-07-29T05:22:20;25.00;99.90
48768;DHT22;34933;40.968;14.538;2022-07-29T05:25:04;25.10;99.90
48768;DHT22;34933;40.968;14.538;2022-07-29T05:27:49;25.20;99.90
48768;DHT22;34933;40.968;14.538;2022-07-29T05:30:34;25.30;99.90
48768;DHT22;34933;40.968;14.538;2022-07-29T05:33:19;25.40;99.90
48768;DHT22;34933;40.968;14.538;2022-07-29T05:36:06;25.50;99.90
48768;DHT22;34933;40.968;14.538;2022-07-29T05:38:51;25.60;99.90
48768;DHT22;34933;40.968;14.538;2022-07-29T05:41:36;25.70;99.90
48768;DHT22;34933;40.968;14.538;2022-07-29T05:44:20;25.80;99.90
48768;DHT22;34933;40.968;14.538;2022-07-29T05:47:06;25.90;99.90
48768;DHT22;34933;40.968;14.538;2022-07-29T05:49:50;26.00;99.90
48768;DHT22;34933;40.968;14.538;2022-07-29T05:52:35;26.10;99.90
48768;DHT22;34933;40.968;14.538;2022-07-29T05:55:19;26.20;99.90
48768;DHT22;34933;40.968;14.538;2022-07-29T05:58:04;26.30;99.90
48768;DHT22;34933;40.968;14.538;2022-07-29T06:00:49;26.50;99.90
48768;DHT22;34933;40.968;14.538;2022-07-29T06:03:34;26.50;99.90
48768;DHT22;34933;40.968;14.538;2022-07-29T06:06:18;26.60;99.90
48768;DHT22;34933;40.968;14.538;2022-07-29T06:09:03;26.80;99.90
48768;DHT22;34933;40.968;14.538;2022-07-29T06:11:48;26.90;99.90
48768;DHT22;34933;40.968;14.538;2022-07-29T06:14:32;27.00;99.90
48768;DHT22;34933;40.968;14.538;2022-07-29T06:17:17;27.10;99.90
48768;DHT22;34933;40.968;14.538;2022-07-29T06:20:03;27.30;99.90
48768;DHT22;34933;40.968;14.538;2022-07-29T06:22:47;27.30;99.90
48768;DHT22;34933;40.968;14.538;2022-07-29T06:25:32;27.30;99.90
48768;DHT22;34933;40.968;14.538;2022-07-29T06:28:18;27.40;99.90
48768;DHT22;34933;40.968;14.538;2022-07-29T06:31:03;27.50;99.90
48768;DHT22;34933;40.968;14.538;2022-07-29T06:33:49;27.40;99.90
48768;DHT22;34933;40.968;14.538;2022-07-29T06:36:37;27.40;99.90
48768;DHT22;34933;40.968;14.538;2022-07-29T06:39:21;27.60;99.90
48768;DHT22;34933;40.968;14.538;2022-07-29T06:42:07;27.60;99.90
48768;DHT22;34933;40.968;14.538;2022-07-29T06:44:51;27.70;99.90
48768;DHT22;34933;40.968;14.538;2022-07-29T06:47:36;27.70;99.90
48768;DHT22;34933;40.968;14.538;2022-07-29T06:50:21;27.80;99.90
48768;DHT22;34933;40.968;14.538;2022-07-29T06:53:05;28.00;99.90
48768;DHT22;34933;40.968;14.538;2022-07-29T06:55:51;28.00;99.90
48768;DHT22;34933;40.968;14.538;2022-07-29T06:58:36;27.80;99.90
48768;DHT22;34933;40.968;14.538;2022-07-29T07:01:20;27.90;99.90
48768;DHT22;34933;40.968;14.538;2022-07-29T07:04:05;28.00;99.90
48768;DHT22;34933;40.968;14.538;2022-07-29T07:06:50;28.10;99.90
48768;DHT22;34933;40.968;14.538;2022-07-29T07:09:34;28.10;99.90
48768;DHT22;34933;40.968;14.538;2022-07-29T07:12:19;28.10;99.90
48768;DHT22;34933;40.968;14.538;2022-07-29T07:15:04;28.10;99.90
48768;DHT22;34933;40.968;14.538;2022-07-29T07:17:49;28.20;99.90
48768;DHT22;34933;40.968;14.538;2022-07-29T07:20:35;28.30;99.90
48768;DHT22;34933;40.968;14.538;2022-07-29T07:23:19;28.40;99.90
48768;DHT22;34933;40.968;14.538;2022-07-29T07:26:04;28.50;99.90
48768;DHT22;34933;40.968;14.538;2022-07-29T07:28:50;28.60;99.90
48768;DHT22;34933;40.968;14.538;2022-07-29T07:31:35;28.50;99.90
48768;DHT22;34933;40.968;14.538;2022-07-29T07:34:20;28.50;99.90
48768;DHT22;34933;40.968;14.538;2022-07-29T07:37:05;28.50;99.90
48768;DHT22;34933;40.968;14.538;2022-07-29T07:39:50;28.50;99.90
48768;DHT22;34933;40.968;14.538;2022-07-29T07:42:35;28.60;99.90
48768;DHT22;34933;40.968;14.538;2022-07-29T07:45:20;28.80;99.90
48768;DHT22;34933;40.968;14.538;2022-07-29T07:48:04;29.00;99.90
48768;DHT22;34933;40.968;14.538;2022-07-29T07:50:49;29.00;99.90
48768;DHT22;34933;40.968;14.538;2022-07-29T07:53:34;29.10;99.90
48768;DHT22;34933;40.968;14.538;2022-07-29T07:56:19;29.20;99.90
48768;DHT22;34933;40.968;14.538;2022-07-29T07:59:04;29.20;99.90
48768;DHT22;34933;40.968;14.538;2022-07-29T08:01:49;29.30;99.90
48768;DHT22;34933;40.968;14.538;2022-07-29T08:04:34;29.40;99.90
48768;DHT22;34933;40.968;14.538;2022-07-29T08:07:19;29.40;99.90
48768;DHT22;34933;40.968;14.538;2022-07-29T08:10:04;29.50;99.90
48768;DHT22;34933;40.968;14.538;2022-07-29T08:12:48;29.60;99.90
48768;DHT22;34933;40.968;14.538;2022-07-29T08:15:34;29.70;99.90
48768;DHT22;34933;40.968;14.538;2022-07-29T08:18:18;29.70;99.90
48768;DHT22;34933;40.968;14.538;2022-07-29T08:21:03;29.80;99.90
48768;DHT22;34933;40.968;14.538;2022-07-29T08:23:48;29.90;99.90
48768;DHT22;34933;40.968;14.538;2022-07-29T08:26:59;30.00;99.90
48768;DHT22;34933;40.968;14.538;2022-07-29T08:29:43;30.10;99.90
48768;DHT22;34933;40.968;14.538;2022-07-29T08:32:28;30.00;99.90
48768;DHT22;34933;40.968;14.538;2022-07-29T08:35:13;29.90;99.90
48768;DHT22;34933;40.968;14.538;2022-07-29T08:37:57;29.80;99.90
48768;DHT22;34933;40.968;14.538;2022-07-29T08:40:42;30.00;99.90
48768;DHT22;34933;40.968;14.538;2022-07-29T08:43:30;30.10;99.90
48768;DHT22;34933;40.968;14.538;2022-07-29T08:46:16;30.30;99.90
48768;DHT22;34933;40.968;14.538;2022-07-29T08:49:03;30.70;99.90
48768;DHT22;34933;40.968;14.538;2022-07-29T08:51:48;30.90;99.90
48768;DHT22;34933;40.968;14.538;2022-07-29T08:54:33;30.90;99.90
48768;DHT22;34933;40.968;14.538;2022-07-29T08:57:19;30.60;99.90
48768;DHT22;34933;40.968;14.538;2022-07-29T09:00:05;30.40;99.90
48768;DHT22;34933;40.968;14.538;2022-07-29T09:02:56;30.50;99.90
48768;DHT22;34933;40.968;14.538;2022-07-29T09:05:47;30.70;99.90
48768;DHT22;34933;40.968;14.538;2022-07-29T09:08:32;30.90;99.70
48768;DHT22;34933;40.968;14.538;2022-07-29T09:11:17;30.90;99.80
48768;DHT22;34933;40.968;14.538;2022-07-29T09:14:02;31.10;99.40
48768;DHT22;34933;40.968;14.538;2022-07-29T09:19:37;31.10;98.40
48768;DHT22;34933;40.968;14.538;2022-07-29T09:22:29;31.20;97.90
48768;DHT22;34933;40.968;14.538;2022-07-29T09:25:35;31.20;98.00
48768;DHT22;34933;40.968;14.538;2022-07-29T09:28:19;31.30;97.60
48768;DHT22;34933;40.968;14.538;2022-07-29T09:31:04;31.20;97.90
48768;DHT22;34933;40.968;14.538;2022-07-29T09:33:50;31.40;97.60
48768;DHT22;34933;40.968;14.538;2022-07-29T09:36:47;31.60;97.60
48768;DHT22;34933;40.968;14.538;2022-07-29T09:39:40;31.70;98.10
48768;DHT22;34933;40.968;14.538;2022-07-29T09:42:30;31.90;97.90
48768;DHT22;34933;40.968;14.538;2022-07-29T09:45:33;31.70;98.10
48768;DHT22;34933;40.968;14.538;2022-07-29T09:48:23;31.50;98.00
48768;DHT22;34933;40.968;14.538;2022-07-29T09:51:19;31.70;98.00
48768;DHT22;34933;40.968;14.538;2022-07-29T09:54:24;31.60;97.40
48768;DHT22;34933;40.968;14.538;2022-07-29T09:57:25;31.50;97.40
48768;DHT22;34933;40.968;14.538;2022-07-29T10:00:12;31.60;97.30
48768;DHT22;34933;40.968;14.538;2022-07-29T10:03:00;31.70;96.90
48768;DHT22;34933;40.968;14.538;2022-07-29T10:06:06;32.00;96.90
48768;DHT22;34933;40.968;14.538;2022-07-29T10:08:51;32.50;96.10
48768;DHT22;34933;40.968;14.538;2022-07-29T10:11:37;32.80;95.30
48768;DHT22;34933;40.968;14.538;2022-07-29T10:14:21;33.20;95.00
48768;DHT22;34933;40.968;14.538;2022-07-29T10:17:07;33.50;94.90
48768;DHT22;34933;40.968;14.538;2022-07-29T10:19:52;33.40;94.40
48768;DHT22;34933;40.968;14.538;2022-07-29T10:22:37;33.40;94.90
48768;DHT22;34933;40.968;14.538;2022-07-29T10:25:23;33.10;95.30
48768;DHT22;34933;40.968;14.538;2022-07-29T10:28:07;33.40;95.00
48768;DHT22;34933;40.968;14.538;2022-07-29T10:31:02;33.30;94.80
48768;DHT22;34933;40.968;14.538;2022-07-29T10:34:04;33.10;93.70
48768;DHT22;34933;40.968;14.538;2022-07-29T10:36:58;33.10;93.30
48768;DHT22;34933;40.968;14.538;2022-07-29T10:42:40;33.10;93.30
48768;DHT22;34933;40.968;14.538;2022-07-29T10:45:25;32.80;93.70
48768;DHT22;34933;40.968;14.538;2022-07-29T10:48:09;33.00;93.30
48768;DHT22;34933;40.968;14.538;2022-07-29T10:53:52;33.30;92.80
48768;DHT22;34933;40.968;14.538;2022-07-29T10:56:37;33.70;93.20
48768;DHT22;34933;40.968;14.538;2022-07-29T10:59:22;34.00;92.00
48768;DHT22;34933;40.968;14.538;2022-07-29T11:05:21;34.80;91.60
48768;DHT22;34933;40.968;14.538;2022-07-29T11:14:00;34.30;94.30
48768;DHT22;34933;40.968;14.538;2022-07-29T11:17:14;33.90;94.50
48768;DHT22;34933;40.968;14.538;2022-07-29T11:20:33;34.30;94.00
48768;DHT22;34933;40.968;14.538;2022-07-29T11:23:30;34.80;93.50
48768;DHT22;34933;40.968;14.538;2022-07-29T11:26:17;35.30;93.10
48768;DHT22;34933;40.968;14.538;2022-07-29T11:29:21;35.70;92.40
48768;DHT22;34933;40.968;14.538;2022-07-29T11:32:11;35.60;91.80
48768;DHT22;34933;40.968;14.538;2022-07-29T11:35:12;35.60;91.50
48768;DHT22;34933;40.968;14.538;2022-07-29T11:41:24;36.30;90.80
48768;DHT22;34933;40.968;14.538;2022-07-29T11:44:08;36.00;91.30
48768;DHT22;34933;40.968;14.538;2022-07-29T11:46:53;35.60;91.60
48768;DHT22;34933;40.968;14.538;2022-07-29T11:49:44;35.80;91.60
48768;DHT22;34933;40.968;14.538;2022-07-29T11:52:40;35.70;92.60
48768;DHT22;34933;40.968;14.538;2022-07-29T11:55:30;34.80;93.00
48768;DHT22;34933;40.968;14.538;2022-07-29T11:58:21;34.20;93.90
48768;DHT22;34933;40.968;14.538;2022-07-29T12:01:07;34.40;93.70
48768;DHT22;34933;40.968;14.538;2022-07-29T12:04:02;34.50;93.80
48768;DHT22;34933;40.968;14.538;2022-07-29T12:06:51;34.40;94.00
48768;DHT22;34933;40.968;14.538;2022-07-29T12:09:36;35.50;92.50
48768;DHT22;34933;40.968;14.538;2022-07-29T12:12:21;36.10;92.40
48768;DHT22;34933;40.968;14.538;2022-07-29T12:15:25;36.40;91.60
48768;DHT22;34933;40.968;14.538;2022-07-29T12:18:15;36.80;91.60
48768;DHT22;34933;40.968;14.538;2022-07-29T12:21:01;35.90;91.80
48768;DHT22;34933;40.968;14.538;2022-07-29T12:23:56;36.50;91.80
48768;DHT22;34933;40.968;14.538;2022-07-29T12:27:16;36.70;91.50
48768;DHT22;34933;40.968;14.538;2022-07-29T12:30:10;37.20;91.40
48768;DHT22;34933;40.968;14.538;2022-07-29T12:32:54;37.10;91.50
48768;DHT22;34933;40.968;14.538;2022-07-29T12:35:40;37.30;91.40
48768;DHT22;34933;40.968;14.538;2022-07-29T12:38:25;37.60;90.50
48768;DHT22;34933;40.968;14.538;2022-07-29T12:41:10;37.90;90.10
48768;DHT22;34933;40.968;14.538;2022-07-29T12:43:55;38.50;89.40
48768;DHT22;34933;40.968;14.538;2022-07-29T12:46:40;39.10;88.40
48768;DHT22;34933;40.968;14.538;2022-07-29T12:49:24;38.90;88.30
48768;DHT22;34933;40.968;14.538;2022-07-29T12:52:32;38.80;88.20
48768;DHT22;34933;40.968;14.538;2022-07-29T12:55:37;39.30;86.60
48768;DHT22;34933;40.968;14.538;2022-07-29T12:58:30;39.00;86.90
48768;DHT22;34933;40.968;14.538;2022-07-29T13:01:16;39.30;85.60
48768;DHT22;34933;40.968;14.538;2022-07-29T13:04:03;38.80;85.10
48768;DHT22;34933;40.968;14.538;2022-07-29T13:06:58;39.00;85.40
48768;DHT22;34933;40.968;14.538;2022-07-29T13:09:44;38.90;85.80
48768;DHT22;34933;40.968;14.538;2022-07-29T13:12:29;38.70;85.90
48768;DHT22;34933;40.968;14.538;2022-07-29T13:15:15;39.10;86.60
48768;DHT22;34933;40.968;14.538;2022-07-29T13:18:00;40.30;83.60
48768;DHT22;34933;40.968;14.538;2022-07-29T13:20:44;40.10;82.70
48768;DHT22;34933;40.968;14.538;2022-07-29T13:23:29;40.60;82.90
48768;DHT22;34933;40.968;14.538;2022-07-29T13:26:14;40.70;82.20
48768;DHT22;34933;40.968;14.538;2022-07-29T13:29:02;40.80;82.30
48768;DHT22;34933;40.968;14.538;2022-07-29T13:31:46;41.40;81.00
48768;DHT22;34933;40.968;14.538;2022-07-29T13:34:31;40.80;81.10
48768;DHT22;34933;40.968;14.538;2022-07-29T13:37:16;40.30;82.00
48768;DHT22;34933;40.968;14.538;2022-07-29T13:40:02;40.80;80.80
48768;DHT22;34933;40.968;14.538;2022-07-29T13:42:47;41.20;80.60
48768;DHT22;34933;40.968;14.538;2022-07-29T13:45:31;41.40;80.60
48768;DHT22;34933;40.968;14.538;2022-07-29T13:48:16;40.50;81.30
48768;DHT22;34933;40.968;14.538;2022-07-29T13:51:00;39.00;83.40
48768;DHT22;34933;40.968;14.538;2022-07-29T13:53:45;37.30;85.60
48768;DHT22;34933;40.968;14.538;2022-07-29T13:56:30;36.30;87.60
48768;DHT22;34933;40.968;14.538;2022-07-29T13:59:14;35.70;89.10
48768;DHT22;34933;40.968;14.538;2022-07-29T14:01:59;35.30;89.50
48768;DHT22;34933;40.968;14.538;2022-07-29T14:04:44;35.90;89.00
48768;DHT22;34933;40.968;14.538;2022-07-29T14:07:28;36.60;87.70
48768;DHT22;34933;40.968;14.538;2022-07-29T14:10:13;37.50;87.40
48768;DHT22;34933;40.968;14.538;2022-07-29T14:12:57;38.60;85.20
48768;DHT22;34933;40.968;14.538;2022-07-29T14:15:42;39.30;83.80
48768;DHT22;34933;40.968;14.538;2022-07-29T14:18:27;39.50;83.50
48768;DHT22;34933;40.968;14.538;2022-07-29T14:21:12;40.30;82.60
48768;DHT22;34933;40.968;14.538;2022-07-29T14:23:56;40.20;81.90
48768;DHT22;34933;40.968;14.538;2022-07-29T14:26:40;40.00;81.40
48768;DHT22;34933;40.968;14.538;2022-07-29T14:29:25;39.90;81.80
48768;DHT22;34933;40.968;14.538;2022-07-29T14:32:13;39.60;81.70
48768;DHT22;34933;40.968;14.538;2022-07-29T14:34:59;39.60;82.30
48768;DHT22;34933;40.968;14.538;2022-07-29T14:37:44;39.80;82.20
48768;DHT22;34933;40.968;14.538;2022-07-29T14:40:29;40.60;81.20
48768;DHT22;34933;40.968;14.538;2022-07-29T14:43:14;40.50;80.60
48768;DHT22;34933;40.968;14.538;2022-07-29T14:45:58;39.70;81.10
48768;DHT22;34933;40.968;14.538;2022-07-29T14:48:43;39.40;81.60
48768;DHT22;34933;40.968;14.538;2022-07-29T14:51:28;39.70;81.30
48768;DHT22;34933;40.968;14.538;2022-07-29T14:54:12;40.40;79.70
48768;DHT22;34933;40.968;14.538;2022-07-29T14:56:57;40.40;80.20
48768;DHT22;34933;40.968;14.538;2022-07-29T14:59:42;39.50;80.70
48768;DHT22;34933;40.968;14.538;2022-07-29T15:02:26;39.50;80.90
48768;DHT22;34933;40.968;14.538;2022-07-29T15:05:10;40.40;79.70
48768;DHT22;34933;40.968;14.538;2022-07-29T15:07:55;39.60;79.80
48768;DHT22;34933;40.968;14.538;2022-07-29T15:10:40;38.70;81.10
48768;DHT22;34933;40.968;14.538;2022-07-29T15:13:25;38.70;81.30
48768;DHT22;34933;40.968;14.538;2022-07-29T15:16:09;38.80;81.80
48768;DHT22;34933;40.968;14.538;2022-07-29T15:18:54;39.20;81.00
48768;DHT22;34933;40.968;14.538;2022-07-29T15:21:40;38.30;81.60
48768;DHT22;34933;40.968;14.538;2022-07-29T15:24:25;38.10;82.60
48768;DHT22;34933;40.968;14.538;2022-07-29T15:27:10;38.40;82.20
48768;DHT22;34933;40.968;14.538;2022-07-29T15:29:58;37.80;82.80
48768;DHT22;34933;40.968;14.538;2022-07-29T15:32:43;37.90;82.80
48768;DHT22;34933;40.968;14.538;2022-07-29T15:35:28;38.50;83.00
48768;DHT22;34933;40.968;14.538;2022-07-29T15:38:13;39.40;81.20
48768;DHT22;34933;40.968;14.538;2022-07-29T15:40:58;39.00;81.10
48768;DHT22;34933;40.968;14.538;2022-07-29T15:43:45;38.10;82.60
48768;DHT22;34933;40.968;14.538;2022-07-29T15:46:32;37.70;83.40
48768;DHT22;34933;40.968;14.538;2022-07-29T15:49:39;37.80;83.30
48768;DHT22;34933;40.968;14.538;2022-07-29T15:52:23;38.10;83.50
48768;DHT22;34933;40.968;14.538;2022-07-29T15:55:08;37.30;83.90
48768;DHT22;34933;40.968;14.538;2022-07-29T15:57:53;37.80;84.00
48768;DHT22;34933;40.968;14.538;2022-07-29T16:00:38;38.40;82.90
48768;DHT22;34933;40.968;14.538;2022-07-29T16:03:22;38.80;82.60
48768;DHT22;34933;40.968;14.538;2022-07-29T16:06:08;38.20;82.90
48768;DHT22;34933;40.968;14.538;2022-07-29T16:08:52;38.30;83.10
48768;DHT22;34933;40.968;14.538;2022-07-29T16:11:39;38.10;82.80
48768;DHT22;34933;40.968;14.538;2022-07-29T16:14:24;37.40;83.30
48768;DHT22;34933;40.968;14.538;2022-07-29T16:17:08;37.20;84.10
48768;DHT22;34933;40.968;14.538;2022-07-29T16:19:53;37.40;84.30
48768;DHT22;34933;40.968;14.538;2022-07-29T16:22:38;37.70;84.10
48768;DHT22;34933;40.968;14.538;2022-07-29T16:25:22;37.40;84.30
48768;DHT22;34933;40.968;14.538;2022-07-29T16:28:07;37.40;84.70
48768;DHT22;34933;40.968;14.538;2022-07-29T16:30:52;37.50;85.00
48768;DHT22;34933;40.968;14.538;2022-07-29T16:33:37;37.40;84.60
48768;DHT22;34933;40.968;14.538;2022-07-29T16:36:21;37.20;85.40
48768;DHT22;34933;40.968;14.538;2022-07-29T16:39:06;37.10;85.40
48768;DHT22;34933;40.968;14.538;2022-07-29T16:41:51;37.10;86.20
48768;DHT22;34933;40.968;14.538;2022-07-29T16:44:35;37.10;85.80
48768;DHT22;34933;40.968;14.538;2022-07-29T16:47:20;37.10;85.80
48768;DHT22;34933;40.968;14.538;2022-07-29T16:50:05;36.00;87.00
48768;DHT22;34933;40.968;14.538;2022-07-29T16:52:50;35.70;88.20
48768;DHT22;34933;40.968;14.538;2022-07-29T16:55:35;35.60;88.70
48768;DHT22;34933;40.968;14.538;2022-07-29T16:58:19;35.60;89.30
48768;DHT22;34933;40.968;14.538;2022-07-29T17:01:04;36.00;88.80
48768;DHT22;34933;40.968;14.538;2022-07-29T17:03:49;35.40;89.30
48768;DHT22;34933;40.968;14.538;2022-07-29T17:06:49;35.00;89.80
48768;DHT22;34933;40.968;14.538;2022-07-29T17:09:33;35.10;90.00
48768;DHT22;34933;40.968;14.538;2022-07-29T17:12:18;34.70;90.30
48768;DHT22;34933;40.968;14.538;2022-07-29T17:15:04;34.20;90.90
48768;DHT22;34933;40.968;14.538;2022-07-29T17:17:49;34.40;90.90
48768;DHT22;34933;40.968;14.538;2022-07-29T17:20:33;34.30;90.90
48768;DHT22;34933;40.968;14.538;2022-07-29T17:23:19;34.70;90.60
48768;DHT22;34933;40.968;14.538;2022-07-29T17:26:04;34.80;90.50
48768;DHT22;34933;40.968;14.538;2022-07-29T17:28:48;34.50;90.70
48768;DHT22;34933;40.968;14.538;2022-07-29T17:31:33;34.50;90.60
48768;DHT22;34933;40.968;14.538;2022-07-29T17:34:18;34.30;90.90
48768;DHT22;34933;40.968;14.538;2022-07-29T17:37:04;33.90;90.90
48768;DHT22;34933;40.968;14.538;2022-07-29T17:39:49;33.80;91.20
48768;DHT22;34933;40.968;14.538;2022-07-29T17:42:34;33.40;91.70
48768;DHT22;34933;40.968;14.538;2022-07-29T17:45:18;32.80;92.10
48768;DHT22;34933;40.968;14.538;2022-07-29T17:48:03;32.20;92.80
48768;DHT22;34933;40.968;14.538;2022-07-29T17:50:48;31.90;93.40